Time;durP1;ratioP1;P1;durP2;ratioP2;P2;SDS_P1;SDS_P2;PMS_P1;PMS_P2;Temp;Humidity;BMP_temperature;BMP_pressure;BME280_temperature;BME280_humidity;BME280_pressure;Samples;Min_cycle;Max_cycle;Signal;HPM_P1;HPM_P2
2022/03/08 00:02:10;;;;;;;7.10;5.63;;;;;;;17.06;47.15;99111.28;4982177;28;20035;-91
2022/03/08 00:04:35;;;;;;;7.70;5.10;;;;;;;17.06;47.28;99111.28;4977512;28;20061;-92
2022/03/08 00:07:02;;;;;;;7.15;5.47;;;;;;;17.05;47.43;99109.56;4977537;28;20027;-91
2022/03/08 00:09:28;;;;;;;7.25;5.13;;;;;;;17.04;47.04;99107.84;4977783;28;20027;-92
2022/03/08 00:11:54;;;;;;;6.78;4.95;;;;;;;17.05;47.28;99104.31;4978732;28;20439;-91
2022/03/08 00:14:21;;;;;;;9.27;5.68;;;;;;;17.05;47.42;99099.03;4993227;28;20201;-92
2022/03/08 00:16:47;;;;;;;6.70;4.82;;;;;;;17.04;47.40;99098.16;4977231;28;20086;-92
2022/03/08 00:19:13;;;;;;;6.50;4.90;;;;;;;17.06;47.23;99106.00;4962029;28;20050;-92
2022/03/08 00:21:43;;;;;;;6.93;5.25;;;;;;;17.05;47.35;99112.22;4980842;28;20018;-91
2022/03/08 00:24:16;;;;;;;6.43;4.90;;;;;;;17.05;47.29;99112.22;4997637;28;20082;-91
2022/03/08 00:26:42;;;;;;;7.18;5.10;;;;;;;17.06;47.27;99111.28;4982569;28;20045;-91
2022/03/08 00:29:19;;;;;;;6.18;4.70;;;;;;;17.04;47.36;99107.84;4983629;28;20007;-91
2022/03/08 00:32:09;;;;;;;5.97;4.63;;;;;;;17.04;47.13;99108.72;4982983;28;20070;-92
2022/03/08 00:34:55;;;;;;;5.82;4.30;;;;;;;17.05;47.39;99106.94;4983533;28;20027;-93
2022/03/08 00:37:23;;;;;;;7.22;5.07;;;;;;;17.06;47.40;99105.13;4983105;28;20042;-91
2022/03/08 00:39:50;;;;;;;6.28;4.47;;;;;;;17.05;47.17;99106.94;4983251;28;20011;-92
2022/03/08 00:42:37;;;;;;;6.65;4.53;;;;;;;17.07;47.07;99097.16;4985692;28;20023;-91
2022/03/08 00:51:52;;;;;;;7.75;4.72;;;;;;;17.05;47.50;99099.03;4995451;28;20014;-92
2022/03/08 00:54:22;;;;;;;6.80;4.50;;;;;;;17.04;47.16;99097.31;4949403;28;20038;-92
2022/03/08 00:56:55;;;;;;;6.20;4.38;;;;;;;17.04;47.40;99097.31;4963349;28;20034;-91
2022/03/08 00:59:21;;;;;;;6.35;4.70;;;;;;;17.04;47.16;99099.94;4961542;28;20047;-92
2022/03/08 01:01:47;;;;;;;7.55;4.68;;;;;;;17.04;47.32;99099.94;4993597;28;20030;-91
2022/03/08 01:04:16;;;;;;;7.35;4.80;;;;;;;17.02;47.25;99099.13;4979476;28;20055;-91
2022/03/08 01:06:43;;;;;;;6.35;4.30;;;;;;;16.98;47.36;99100.22;4979422;28;20034;-92
2022/03/08 01:09:10;;;;;;;5.95;4.38;;;;;;;16.99;47.13;99094.00;4963446;28;20090;-91
2022/03/08 01:11:52;;;;;;;6.20;4.28;;;;;;;16.99;47.28;99097.50;4966046;28;20042;-90
2022/03/08 01:14:49;;;;;;;6.88;4.60;;;;;;;16.99;47.07;99094.00;4977004;28;20019;-92
2022/03/08 01:17:16;;;;;;;6.38;4.18;;;;;;;16.98;47.28;99092.31;4982040;28;20011;-92
2022/03/08 01:19:41;;;;;;;5.82;4.28;;;;;;;16.98;47.28;99087.03;4973656;28;20180;-91
2022/03/08 01:22:07;;;;;;;6.88;4.45;;;;;;;16.96;47.36;99088.91;4991479;28;20030;-91
2022/03/08 01:24:33;;;;;;;7.00;3.90;;;;;;;16.97;47.10;99087.97;4976211;28;20027;-91
2022/03/08 01:26:59;;;;;;;6.22;4.13;;;;;;;16.97;47.36;99080.06;4973799;28;20034;-92
2022/03/08 01:29:25;;;;;;;7.20;4.80;;;;;;;16.97;47.09;99074.78;4974529;28;20062;-91
2022/03/08 01:31:50;;;;;;;6.72;4.47;;;;;;;16.97;47.01;99080.06;4971790;28;20037;-91
2022/03/08 01:34:16;;;;;;;6.53;4.20;;;;;;;16.95;47.26;99076.66;4975318;28;20068;-90
2022/03/08 01:36:42;;;;;;;5.90;4.22;;;;;;;16.96;47.35;99073.09;4973577;28;20083;-91
2022/03/08 01:39:08;;;;;;;6.43;4.50;;;;;;;16.95;47.18;99066.13;4971352;28;20090;-91
2022/03/08 01:41:34;;;;;;;6.22;4.20;;;;;;;16.96;47.39;99062.53;4992227;28;20019;-91
2022/03/08 01:43:59;;;;;;;6.13;4.38;;;;;;;16.96;46.96;99052.00;4962924;28;20046;-91
2022/03/08 01:46:25;;;;;;;5.90;4.32;;;;;;;16.93;47.11;99060.91;4978163;28;20031;-92
2022/03/08 01:48:50;;;;;;;6.50;4.07;;;;;;;16.96;47.17;99057.28;4977443;28;20086;-91
2022/03/08 01:51:16;;;;;;;6.60;4.65;;;;;;;16.94;47.18;99065.25;4995384;28;20078;-91
2022/03/08 01:53:42;;;;;;;6.47;4.30;;;;;;;16.95;47.09;99055.56;4981202;28;20031;-92
2022/03/08 01:56:08;;;;;;;7.45;4.35;;;;;;;16.94;47.11;99051.25;4981820;28;20015;-92
2022/03/08 01:58:35;;;;;;;6.30;4.20;;;;;;;16.92;47.09;99049.50;4978614;28;20027;-91
2022/03/08 02:01:01;;;;;;;5.78;3.80;;;;;;;16.92;47.20;99046.88;4978627;28;20373;-92
2022/03/08 02:03:27;;;;;;;6.18;4.32;;;;;;;16.92;46.88;99041.59;4981250;28;20058;-92
2022/03/08 02:05:53;;;;;;;5.75;4.10;;;;;;;16.91;47.06;99045.19;4968388;28;20031;-92
2022/03/08 02:08:19;;;;;;;6.22;3.95;;;;;;;16.90;47.29;99046.09;5001219;28;20018;-91
2022/03/08 02:10:45;;;;;;;6.20;4.15;;;;;;;16.90;47.17;99040.84;4998836;28;20027;-92
2022/03/08 02:13:11;;;;;;;6.88;4.30;;;;;;;16.91;47.13;99042.53;4982645;28;20027;-92
2022/03/08 02:15:37;;;;;;;7.10;4.63;;;;;;;16.91;46.93;99034.63;4982849;28;20094;-92
2022/03/08 02:18:06;;;;;;;5.43;4.03;;;;;;;16.91;47.02;99045.19;4951422;28;20061;-92
2022/03/08 02:20:32;;;;;;;5.32;3.80;;;;;;;16.90;47.27;99042.59;4967954;28;20043;-92
2022/03/08 02:23:02;;;;;;;5.60;4.05;;;;;;;16.90;47.07;99048.75;5000820;28;20015;-92
2022/03/08 02:25:36;;;;;;;6.20;4.05;;;;;;;16.91;47.37;99054.88;4968143;28;20035;-91
2022/03/08 02:28:07;;;;;;;7.47;4.85;;;;;;;16.90;47.29;99054.00;4998918;28;20054;-92
2022/03/08 02:30:34;;;;;;;6.85;4.30;;;;;;;16.90;47.17;99048.75;4984336;28;20019;-92
2022/03/08 02:33:01;;;;;;;5.25;3.88;;;;;;;16.90;47.33;99046.09;5001061;28;20068;-92
2022/03/08 02:35:29;;;;;;;6.10;4.13;;;;;;;16.92;47.37;99046.03;4965560;28;20050;-92
2022/03/08 02:37:58;;;;;;;5.35;4.05;;;;;;;16.92;47.25;99041.59;4978735;28;20031;-91
2022/03/08 02:40:32;;;;;;;5.57;3.92;;;;;;;16.93;47.32;99042.47;4983688;28;20019;-94
2022/03/08 02:43:11;;;;;;;6.00;3.90;;;;;;;16.91;47.17;99034.63;4986409;28;20117;-92
2022/03/08 02:45:37;;;;;;;5.78;4.20;;;;;;;16.94;47.40;99035.44;4983593;28;20011;-92
2022/03/08 02:48:23;;;;;;;5.90;4.30;;;;;;;16.92;47.08;99028.41;4952690;28;20018;-91
2022/03/08 02:51:34;;;;;;;6.63;4.33;;;;;;;16.95;47.31;99029.22;4994520;28;20024;-92
2022/03/08 02:54:01;;;;;;;6.05;4.20;;;;;;;16.94;46.97;99027.53;4965139;28;20394;-92
2022/03/08 02:56:27;;;;;;;5.55;3.83;;;;;;;16.91;47.26;99032.00;4999893;28;20078;-92
2022/03/08 02:59:22;;;;;;;6.78;4.55;;;;;;;16.92;47.51;99032.88;4999441;28;20023;-92
2022/03/08 03:01:58;;;;;;;6.15;3.70;;;;;;;16.91;47.16;99037.28;4985699;28;20058;-92
2022/03/08 03:04:26;;;;;;;6.20;4.28;;;;;;;16.92;47.34;99024.97;4967701;28;20034;-92
2022/03/08 03:06:52;;;;;;;6.45;4.22;;;;;;;16.92;47.02;99031.06;4950871;28;20279;-92
2022/03/08 03:09:19;;;;;;;6.13;4.15;;;;;;;16.92;46.97;99031.06;4967218;28;20045;-92
2022/03/08 03:11:45;;;;;;;6.88;4.10;;;;;;;16.92;47.10;99025.78;4968166;28;20022;-92
2022/03/08 03:14:11;;;;;;;5.85;3.97;;;;;;;16.90;47.28;99010.97;4967396;28;20015;-93
2022/03/08 03:16:44;;;;;;;6.60;4.90;;;;;;;16.92;46.91;99020.53;4968504;28;20026;-91
2022/03/08 03:19:09;;;;;;;6.63;4.40;;;;;;;16.92;47.15;99017.88;4967922;28;20027;-92
2022/03/08 03:21:56;;;;;;;7.18;4.47;;;;;;;16.91;47.16;99012.72;4967576;28;20019;-93
2022/03/08 03:24:27;;;;;;;6.85;4.97;;;;;;;16.93;47.21;99013.47;5000220;28;20031;-93
2022/03/08 03:27:22;;;;;;;7.15;4.80;;;;;;;16.93;47.16;99005.56;4984051;28;20030;-93
2022/03/08 03:29:51;;;;;;;6.30;4.28;;;;;;;16.90;47.18;99001.31;4983224;28;20047;-93
2022/03/08 03:32:38;;;;;;;6.10;3.95;;;;;;;16.91;47.27;99005.63;4967514;28;20058;-92
2022/03/08 03:35:09;;;;;;;6.22;4.45;;;;;;;16.88;46.99;98997.91;5000554;28;20078;-92
2022/03/08 03:44:28;;;;;;;6.22;3.85;;;;;;;16.90;46.76;98996.03;4959328;29;20054;-93
2022/03/08 03:53:37;;;;;;;5.25;3.85;;;;;;;16.86;47.03;98999.75;4953514;29;20050;-91
2022/03/08 03:56:02;;;;;;;5.47;3.85;;;;;;;16.85;46.99;98992.78;4932920;29;20043;-91
2022/03/08 03:58:28;;;;;;;5.88;3.88;;;;;;;16.85;47.00;98982.25;4933801;29;20118;-91
2022/03/08 04:00:53;;;;;;;6.45;4.47;;;;;;;16.84;46.84;98988.44;4938355;29;20040;-91
2022/03/08 04:03:19;;;;;;;6.22;4.32;;;;;;;16.86;46.91;98983.09;4936515;29;20038;-92
2022/03/08 04:05:45;;;;;;;5.68;4.05;;;;;;;16.81;46.93;98991.25;4939716;29;20054;-91
2022/03/08 04:08:11;;;;;;;5.90;4.13;;;;;;;16.82;46.95;98982.41;4923781;28;20048;-91
2022/03/08 04:10:45;;;;;;;6.18;4.30;;;;;;;16.84;46.97;98998.13;4933242;28;20106;-92
2022/03/08 04:17:04;;;;;;;6.15;4.20;;;;;;;16.80;46.83;98989.53;4960099;29;20038;-92
2022/03/08 04:19:54;;;;;;;6.25;4.18;;;;;;;16.79;46.96;98987.81;4950177;28;20044;-92
2022/03/08 04:22:21;;;;;;;6.15;4.00;;;;;;;16.77;46.78;98992.34;4932173;29;20107;-91
2022/03/08 04:24:48;;;;;;;7.43;4.20;;;;;;;16.77;47.04;99002.88;4944360;29;20028;-92
2022/03/08 04:27:13;;;;;;;7.18;4.15;;;;;;;16.78;46.96;99002.81;4960048;29;20011;-92
2022/03/08 04:29:46;;;;;;;6.75;4.35;;;;;;;16.78;46.71;99007.22;4959714;29;20031;-92
2022/03/08 04:50:28;;;;;;;6.43;4.40;;;;;;;16.72;47.14;99013.66;4936555;29;20481;-92
2022/03/08 04:52:56;;;;;;;6.70;4.03;;;;;;;16.72;47.08;99007.50;4937556;29;20131;-92
2022/03/08 04:55:27;;;;;;;5.72;4.00;;;;;;;16.68;47.07;99006.81;4938295;29;20062;-91
2022/03/08 04:57:59;;;;;;;5.78;4.18;;;;;;;16.71;46.96;99008.44;4916778;29;20048;-92
2022/03/08 05:00:25;;;;;;;5.93;3.92;;;;;;;16.70;47.16;99009.38;4922339;29;20051;-94
2022/03/08 05:02:52;;;;;;;6.70;4.55;;;;;;;16.70;47.00;99012.03;4922573;29;20035;-93
2022/03/08 05:05:19;;;;;;;6.45;4.45;;;;;;;16.69;46.91;99002.38;4936440;29;20093;-92
2022/03/08 05:07:45;;;;;;;6.28;4.22;;;;;;;16.71;47.15;99001.38;4916770;29;20036;-91
2022/03/08 05:10:12;;;;;;;7.03;4.57;;;;;;;16.69;46.86;99000.63;4918044;29;20068;-92
2022/03/08 05:12:38;;;;;;;6.35;4.25;;;;;;;16.71;46.98;99000.56;4917454;29;20180;-91
2022/03/08 05:15:05;;;;;;;6.53;3.88;;;;;;;16.72;47.12;99004.88;4915696;29;20039;-92
2022/03/08 05:17:31;;;;;;;6.32;4.05;;;;;;;16.71;47.24;99011.09;4916294;29;20036;-91
2022/03/08 05:19:57;;;;;;;6.80;4.45;;;;;;;16.69;47.13;99008.53;4915859;29;20027;-91
2022/03/08 05:22:22;;;;;;;6.22;4.20;;;;;;;16.70;47.12;99012.03;4917129;29;20039;-91
2022/03/08 05:24:54;;;;;;;6.63;4.22;;;;;;;16.68;47.10;99004.19;4922785;29;20106;-93
2022/03/08 05:27:34;;;;;;;8.10;4.35;;;;;;;16.68;46.92;99011.22;4923901;29;20044;-93
2022/03/08 05:30:15;;;;;;;6.75;4.45;;;;;;;16.69;46.96;99007.66;4927668;29;20088;-93
2022/03/08 05:32:57;;;;;;;5.80;4.28;;;;;;;16.69;46.95;99013.78;4927664;29;20047;-92
2022/03/08 05:35:23;;;;;;;6.95;4.18;;;;;;;16.68;47.00;99011.22;4923567;29;20048;-91
2022/03/08 05:37:49;;;;;;;5.88;4.15;;;;;;;16.67;47.01;99012.16;4937405;29;20039;-91
2022/03/08 05:40:15;;;;;;;6.90;4.60;;;;;;;16.66;47.15;99018.38;4957226;29;20035;-92
2022/03/08 05:42:41;;;;;;;5.22;4.00;;;;;;;16.68;46.93;99021.75;4962833;28;20034;-90
2022/03/08 05:45:09;;;;;;;7.07;4.55;;;;;;;16.68;47.14;99027.91;4979800;28;20010;-92
2022/03/08 05:47:36;;;;;;;6.13;3.88;;;;;;;16.68;47.06;99024.41;4975239;28;20110;-91
2022/03/08 05:50:04;;;;;;;6.07;4.45;;;;;;;16.68;46.99;99016.50;4977607;28;20042;-91
2022/03/08 05:52:36;;;;;;;8.05;4.45;;;;;;;16.69;46.92;99023.47;4975702;28;20118;-92
2022/03/08 05:55:19;;;;;;;5.85;4.10;;;;;;;16.68;46.98;99021.75;4999891;28;20027;-91
2022/03/08 05:57:44;;;;;;;5.20;4.05;;;;;;;16.69;47.07;99028.72;4961870;28;20048;-90
2022/03/08 06:00:11;;;;;;;5.65;4.18;;;;;;;16.69;47.27;99028.72;4965792;28;20023;-89
2022/03/08 06:02:36;;;;;;;6.05;4.03;;;;;;;16.69;46.91;99023.47;4959042;28;20034;-89
2022/03/08 06:05:02;;;;;;;6.07;3.90;;;;;;;16.68;46.99;99022.63;4978144;28;20400;-89
2022/03/08 06:07:28;;;;;;;5.68;4.10;;;;;;;16.67;47.23;99020.06;4978852;28;20019;-89
2022/03/08 06:09:54;;;;;;;6.93;4.35;;;;;;;16.67;47.17;99025.34;4945588;29;20547;-89
2022/03/08 06:12:20;;;;;;;6.85;4.43;;;;;;;16.66;46.98;99013.09;4945813;29;20054;-90
2022/03/08 06:14:45;;;;;;;7.25;4.53;;;;;;;16.67;47.14;99025.34;4941312;28;20027;-90
2022/03/08 06:17:11;;;;;;;5.85;3.92;;;;;;;16.67;46.93;99027.97;4977004;28;20083;-90
2022/03/08 06:19:44;;;;;;;7.25;4.53;;;;;;;16.64;47.10;99032.47;4958531;29;20042;-92
2022/03/08 06:22:10;;;;;;;6.85;4.25;;;;;;;16.67;46.99;99026.19;4940794;29;20028;-90
2022/03/08 06:24:36;;;;;;;6.68;4.70;;;;;;;16.64;47.03;99035.09;4945215;29;20074;-89
2022/03/08 06:27:01;;;;;;;6.93;4.30;;;;;;;16.65;47.19;99038.56;4942883;29;20065;-88
2022/03/08 06:29:27;;;;;;;6.60;4.50;;;;;;;16.67;47.07;99041.13;4961995;28;20020;-90
2022/03/08 06:32:23;;;;;;;6.22;4.38;;;;;;;16.67;47.21;99041.13;4939292;28;20050;-89
2022/03/08 06:35:05;;;;;;;8.77;4.35;;;;;;;16.64;47.23;99032.47;4961855;28;20131;-89
2022/03/08 06:37:30;;;;;;;6.13;4.20;;;;;;;16.66;47.21;99023.63;4964537;28;20072;-90
2022/03/08 06:39:56;;;;;;;6.68;4.85;;;;;;;16.64;47.02;99024.56;4962881;28;20026;-88
2022/03/08 06:43:14;;;;;;;7.53;4.88;;;;;;;16.66;47.16;99034.16;4962148;28;20030;-90
2022/03/08 06:45:40;;;;;;;;;;;;;;;16.64;47.15;99029.84;4980415;28;20427;-88
2022/03/08 06:48:05;;;;;;;7.77;4.80;;;;;;;16.64;47.12;99032.47;4961551;28;19953;-88
2022/03/08 06:50:31;;;;;;;7.40;4.82;;;;;;;16.64;47.23;99031.59;4980632;28;20027;-89
2022/03/08 06:52:58;;;;;;;8.23;4.78;;;;;;;16.66;47.25;99026.25;4961872;28;20069;-89
2022/03/08 06:55:23;;;;;;;6.63;4.25;;;;;;;16.67;47.30;99041.13;4961799;28;20046;-90
2022/03/08 06:57:49;;;;;;;6.47;4.82;;;;;;;16.69;47.14;99041.91;4961614;28;20059;-89
2022/03/08 07:00:15;;;;;;;6.60;4.70;;;;;;;16.69;47.18;99040.13;4961404;28;20041;-90
2022/03/08 07:02:41;;;;;;;7.00;4.53;;;;;;;16.68;47.05;99042.84;4961216;28;20361;-88
2022/03/08 07:05:08;;;;;;;6.40;4.80;;;;;;;16.68;47.12;99034.94;4961459;28;20023;-89
2022/03/08 07:07:34;;;;;;;7.18;4.57;;;;;;;16.69;47.28;99044.53;4977083;28;20027;-89
2022/03/08 07:09:59;;;;;;;7.32;4.78;;;;;;;16.71;47.13;99026.91;4978258;28;20078;-89
2022/03/08 07:12:25;;;;;;;6.40;4.57;;;;;;;16.69;47.33;99031.38;4977979;28;20034;-88
2022/03/08 07:14:50;;;;;;;6.30;4.47;;;;;;;16.73;47.22;99025.88;4978325;28;20031;-88
2022/03/08 07:17:16;;;;;;;6.95;4.50;;;;;;;16.72;47.35;99036.50;4963624;28;20030;-89
2022/03/08 07:19:41;;;;;;;6.35;4.13;;;;;;;16.72;47.18;99039.13;4978596;28;20524;-90
2022/03/08 07:22:07;;;;;;;7.10;3.97;;;;;;;16.72;47.23;99044.41;4961236;28;20022;-88
2022/03/08 07:24:33;;;;;;;8.07;5.38;;;;;;;16.75;47.38;99049.50;4961459;28;20346;-89
2022/03/08 07:26:59;;;;;;;7.32;4.70;;;;;;;16.77;47.00;99060.84;4961191;28;20022;-90
2022/03/08 07:29:24;;;;;;;7.03;4.90;;;;;;;16.76;47.44;99061.78;4960826;28;20364;-89
2022/03/08 07:31:50;;;;;;;7.15;4.78;;;;;;;16.77;47.20;99064.31;4960261;28;20031;-89
2022/03/08 07:34:15;;;;;;;7.60;4.80;;;;;;;16.74;47.44;99060.97;4960307;28;20027;-89
2022/03/08 07:36:41;;;;;;;8.13;4.93;;;;;;;16.77;47.33;99064.31;4962316;28;20030;-89
2022/03/08 07:39:06;;;;;;;7.90;4.85;;;;;;;16.78;47.36;99070.44;4960328;28;20093;-89
2022/03/08 07:41:32;;;;;;;7.03;4.63;;;;;;;16.77;47.41;99069.56;4960080;28;20031;-90
2022/03/08 07:43:58;;;;;;;6.47;4.43;;;;;;;16.77;47.35;99076.66;4977436;28;20065;-90
2022/03/08 07:46:24;;;;;;;6.55;4.50;;;;;;;16.79;47.34;99082.69;4961162;28;20474;-89
2022/03/08 07:48:49;;;;;;;9.38;4.97;;;;;;;16.80;47.34;99065.94;4963325;28;20129;-90
2022/03/08 07:51:15;;;;;;;7.20;4.50;;;;;;;16.80;47.28;99073.84;4961389;28;20026;-90
2022/03/08 07:53:40;;;;;;;7.25;4.75;;;;;;;16.82;47.26;99077.28;4961820;28;20034;-89
2022/03/08 07:56:06;;;;;;;6.95;4.90;;;;;;;16.83;47.30;99072.84;4978948;28;20053;-90
2022/03/08 07:58:32;;;;;;;5.85;4.25;;;;;;;16.82;47.43;99092.22;4962563;28;20361;-89
2022/03/08 08:00:57;;;;;;;7.15;4.88;;;;;;;16.83;47.33;99089.53;4962315;28;20042;-90
2022/03/08 08:03:23;;;;;;;7.70;5.03;;;;;;;16.85;47.34;99082.38;4979787;28;20022;-89
2022/03/08 08:05:48;;;;;;;6.03;4.18;;;;;;;16.85;47.25;99092.91;4979749;28;20848;-90
2022/03/08 08:08:14;;;;;;;6.88;4.78;;;;;;;16.83;47.38;99083.38;4963430;28;20031;-90
2022/03/08 08:10:40;;;;;;;7.80;5.10;;;;;;;16.82;47.61;99076.41;4963257;28;20026;-90
2022/03/08 08:13:05;;;;;;;6.32;4.53;;;;;;;16.82;47.47;99082.53;4964143;28;20081;-89
2022/03/08 08:15:31;;;;;;;7.78;5.40;;;;;;;16.86;47.40;99077.97;4981305;28;20026;-90
2022/03/08 08:17:56;;;;;;;7.00;4.93;;;;;;;16.87;47.48;99075.28;4963533;28;20042;-89
2022/03/08 08:20:22;;;;;;;7.13;4.97;;;;;;;16.88;47.27;99081.38;4978669;28;20109;-89
2022/03/08 08:22:48;;;;;;;7.15;4.97;;;;;;;16.88;47.63;99076.09;4977058;28;20349;-89
2022/03/08 08:25:14;;;;;;;6.63;4.60;;;;;;;16.87;47.52;99077.91;4959938;28;20030;-90
2022/03/08 08:27:40;;;;;;;7.30;4.88;;;;;;;16.90;47.39;99079.50;4960127;28;20109;-90
2022/03/08 08:30:10;;;;;;;7.15;4.90;;;;;;;16.90;47.55;99075.09;4960005;28;20056;-89
2022/03/08 08:32:35;;;;;;;6.43;4.47;;;;;;;16.91;47.28;99082.06;4962905;28;20023;-89
2022/03/08 08:35:01;;;;;;;7.72;4.65;;;;;;;16.94;47.35;99085.50;4976633;28;20122;-89
2022/03/08 08:37:27;;;;;;;6.95;4.47;;;;;;;16.95;47.26;99087.19;4960103;28;20054;-89
2022/03/08 08:39:52;;;;;;;5.88;4.65;;;;;;;16.95;47.47;99084.56;4959781;28;20026;-89
2022/03/08 08:42:19;;;;;;;7.05;4.80;;;;;;;16.95;47.19;99097.75;4959900;28;20033;-88
2022/03/08 08:44:44;;;;;;;5.85;4.30;;;;;;;16.97;47.42;99094.09;4959932;28;20350;-90
2022/03/08 08:47:10;;;;;;;7.32;4.60;;;;;;;16.99;47.46;99096.63;4959719;28;20100;-89
2022/03/08 08:49:36;;;;;;;6.40;4.15;;;;;;;17.00;47.28;99095.75;4977344;28;20528;-89
2022/03/08 08:52:01;;;;;;;7.78;4.75;;;;;;;17.02;47.41;99099.13;4961673;28;20033;-89
2022/03/08 08:54:27;;;;;;;6.85;4.60;;;;;;;17.02;47.25;99096.50;4960814;28;20045;-89
2022/03/08 08:56:53;;;;;;;8.38;4.75;;;;;;;17.03;47.46;99095.59;4959214;28;20041;-89
2022/03/08 08:59:18;;;;;;;7.05;4.45;;;;;;;17.04;47.40;99098.16;4959069;28;20030;-89
2022/03/08 09:01:44;;;;;;;6.18;4.53;;;;;;;17.03;47.17;99095.59;4976596;28;20037;-89
2022/03/08 09:04:10;;;;;;;5.68;4.13;;;;;;;17.03;47.36;99095.59;4963326;28;20066;-90
2022/03/08 09:06:36;;;;;;;6.82;4.75;;;;;;;16.99;47.55;99079.06;4963215;28;20027;-89
2022/03/08 09:09:02;;;;;;;9.02;4.32;;;;;;;17.04;47.62;99089.41;4963035;28;20037;-89
2022/03/08 09:11:28;;;;;;;6.43;4.47;;;;;;;17.07;47.31;99097.16;4963042;28;20026;-88
2022/03/08 09:13:56;;;;;;;7.63;4.75;;;;;;;17.07;47.48;99093.66;4962821;28;20038;-89
2022/03/08 09:16:22;;;;;;;6.53;4.70;;;;;;;17.08;47.67;99108.53;4963076;28;20449;-89
2022/03/08 09:18:47;;;;;;;6.80;4.55;;;;;;;17.08;47.26;99093.59;4962931;28;20092;-89
2022/03/08 09:21:13;;;;;;;7.85;5.13;;;;;;;17.09;47.55;99095.28;4963076;28;20027;-89
2022/03/08 09:23:40;;;;;;;7.32;4.70;;;;;;;17.07;47.25;99096.28;4964026;28;20105;-89
2022/03/08 09:26:06;;;;;;;6.72;4.57;;;;;;;17.10;47.20;99097.00;4979585;28;20050;-89
2022/03/08 09:28:32;;;;;;;6.80;4.65;;;;;;;17.12;47.16;99095.16;4980032;28;20050;-88
2022/03/08 09:31:01;;;;;;;8.20;5.20;;;;;;;17.14;47.38;99101.19;4962759;28;20039;-89
2022/03/08 09:33:28;;;;;;;7.18;4.65;;;;;;;17.14;47.51;99095.91;4979520;28;20393;-89
2022/03/08 09:35:54;;;;;;;7.00;4.55;;;;;;;17.17;47.29;99098.41;4962786;28;20121;-89
2022/03/08 09:38:20;;;;;;;5.65;3.90;;;;;;;17.17;47.18;99098.41;4962629;28;20077;-88
2022/03/08 09:40:47;;;;;;;5.70;3.85;;;;;;;17.21;47.15;99100.88;4962940;28;20041;-89
2022/03/08 09:43:14;;;;;;;6.68;4.20;;;;;;;17.23;47.26;99096.41;4963123;28;20038;-89
2022/03/08 09:45:39;;;;;;;5.70;3.90;;;;;;;17.22;47.28;99103.44;4964333;28;20027;-89
2022/03/08 09:48:05;;;;;;;7.35;4.28;;;;;;;17.22;47.40;99092.91;4962440;28;20054;-90
2022/03/08 09:50:31;;;;;;;6.97;4.20;;;;;;;17.22;47.40;99094.66;4978880;28;20372;-88
2022/03/08 09:52:57;;;;;;;5.93;4.18;;;;;;;17.24;47.17;99082.28;4963652;28;20030;-90
2022/03/08 09:55:25;;;;;;;6.60;4.03;;;;;;;17.23;47.53;99080.56;4963744;28;20030;-89
2022/03/08 09:57:54;;;;;;;5.72;3.97;;;;;;;17.25;47.26;99089.25;4963267;28;20035;-90
2022/03/08 10:00:23;;;;;;;6.57;4.30;;;;;;;17.25;47.27;99078.69;4963264;28;20032;-89
2022/03/08 10:02:56;;;;;;;6.40;3.97;;;;;;;17.28;47.35;99079.38;4980044;28;20117;-89
2022/03/08 10:05:27;;;;;;;6.47;4.57;;;;;;;17.27;47.39;99085.59;4963273;28;20035;-89
2022/03/08 10:08:19;;;;;;;6.25;4.50;;;;;;;17.31;47.36;99083.66;4963327;28;20543;-90
2022/03/08 10:10:55;;;;;;;6.85;4.40;;;;;;;17.30;47.23;99093.34;4963831;28;20027;-90
2022/03/08 10:13:24;;;;;;;6.22;3.83;;;;;;;17.31;47.41;99104.75;4962120;28;20092;-89
2022/03/08 10:16:10;;;;;;;7.90;4.43;;;;;;;17.32;47.18;99101.19;4963429;28;20041;-89
2022/03/08 10:18:39;;;;;;;5.95;4.10;;;;;;;17.34;47.38;99101.94;4979888;28;20452;-90
2022/03/08 10:21:23;;;;;;;6.00;4.22;;;;;;;17.34;47.10;99103.75;4962357;28;20424;-89
2022/03/08 10:23:49;;;;;;;6.68;4.35;;;;;;;17.37;47.09;99099.16;4961328;28;20101;-90
2022/03/08 10:26:14;;;;;;;5.80;4.15;;;;;;;17.39;47.23;99102.56;4963203;28;20068;-89
2022/03/08 10:28:45;;;;;;;6.47;4.40;;;;;;;17.40;47.01;99099.03;4979734;28;20039;-89
2022/03/08 10:31:16;;;;;;;6.88;4.00;;;;;;;17.41;46.89;99090.16;4966727;28;20042;-90
2022/03/08 10:33:42;;;;;;;5.45;3.78;;;;;;;17.43;47.02;99101.47;4965711;28;20164;-90
2022/03/08 10:36:21;;;;;;;6.40;4.20;;;;;;;17.44;47.13;99095.25;4982650;28;20125;-90
2022/03/08 10:39:09;;;;;;;6.40;4.38;;;;;;;17.45;46.71;99096.13;4965279;28;20097;-90
2022/03/08 10:41:51;;;;;;;7.35;4.60;;;;;;;17.47;46.97;99093.44;4983868;28;20042;-89
2022/03/08 10:44:30;;;;;;;5.82;4.05;;;;;;;17.49;46.63;99096.81;4966353;28;20044;-90
2022/03/08 10:47:10;;;;;;;5.72;4.18;;;;;;;17.50;46.60;99102.03;4965215;28;20031;-89
2022/03/08 10:49:52;;;;;;;5.80;3.58;;;;;;;17.51;47.08;99097.59;4962351;28;20078;-89
2022/03/08 10:52:24;;;;;;;4.93;3.50;;;;;;;17.54;46.77;99095.63;4960956;28;20046;-88
2022/03/08 10:54:50;;;;;;;6.75;4.40;;;;;;;17.54;46.82;99094.81;4963250;28;20038;-88
2022/03/08 10:57:16;;;;;;;5.72;4.28;;;;;;;17.56;46.99;99106.13;4963934;28;20353;-88
2022/03/08 10:59:54;;;;;;;6.03;4.10;;;;;;;17.56;46.79;99099.06;4961382;28;20031;-88
2022/03/08 11:02:22;;;;;;;5.75;3.90;;;;;;;17.60;46.85;99106.81;4960953;28;20121;-88
2022/03/08 11:05:05;;;;;;;5.72;3.90;;;;;;;17.62;46.95;99108.44;4961431;28;20101;-89
2022/03/08 11:07:31;;;;;;;6.03;4.25;;;;;;;17.62;46.78;99097.88;4962425;28;20086;-88
2022/03/08 11:09:57;;;;;;;4.50;3.40;;;;;;;17.64;47.01;99111.88;4962150;28;20038;-88
2022/03/08 11:12:23;;;;;;;5.55;3.33;;;;;;;17.65;46.63;99108.28;4961075;28;20121;-88
2022/03/08 11:14:48;;;;;;;5.85;3.47;;;;;;;17.66;46.91;99115.25;4961017;28;20027;-88
2022/03/08 11:17:15;;;;;;;5.32;3.63;;;;;;;17.66;46.77;99109.97;4978128;28;20066;-88
2022/03/08 11:19:42;;;;;;;5.38;3.30;;;;;;;17.70;46.96;99106.25;4961215;28;20031;-88
2022/03/08 11:22:08;;;;;;;6.53;3.70;;;;;;;17.73;47.00;99112.28;4960680;28;20042;-88
2022/03/08 11:24:35;;;;;;;6.20;3.50;;;;;;;17.73;46.85;99115.81;4960205;28;20372;-89
2022/03/08 11:27:02;;;;;;;6.10;3.45;;;;;;;17.75;46.87;99118.34;4977637;28;20086;-89
2022/03/08 11:29:29;;;;;;;5.60;3.78;;;;;;;17.75;46.99;99113.91;4960747;28;20034;-89
2022/03/08 11:31:58;;;;;;;5.45;3.85;;;;;;;17.79;46.61;99114.59;4978194;28;20031;-89
2022/03/08 11:34:44;;;;;;;4.45;3.00;;;;;;;17.78;46.77;99113.75;4977900;28;20031;-88
2022/03/08 11:37:19;;;;;;;4.30;2.90;;;;;;;17.79;46.68;99111.97;4978090;28;20037;-89
2022/03/08 11:39:44;;;;;;;5.32;3.50;;;;;;;17.80;46.81;99125.09;4960645;28;20107;-88
2022/03/08 11:42:30;;;;;;;6.97;3.58;;;;;;;17.81;46.95;99118.00;4960771;28;20023;-88
2022/03/08 11:44:58;;;;;;;4.63;3.15;;;;;;;17.83;46.81;99122.28;4960544;28;20367;-89
2022/03/08 11:47:36;;;;;;;5.32;3.35;;;;;;;17.85;47.07;99119.56;4960047;28;20468;-89
2022/03/08 11:50:03;;;;;;;5.55;3.00;;;;;;;17.85;46.79;99114.28;4976101;28;20125;-89
2022/03/08 11:52:36;;;;;;;6.60;3.70;;;;;;;17.87;46.86;99117.69;4960555;28;20035;-89
2022/03/08 11:55:13;;;;;;;6.32;3.78;;;;;;;17.88;46.94;99114.13;4976242;28;20035;-89
2022/03/08 11:57:42;;;;;;;4.35;3.08;;;;;;;17.89;46.64;99115.84;4959677;28;20379;-88
2022/03/08 12:00:36;;;;;;;5.65;3.63;;;;;;;17.91;46.92;99108.66;4978729;28;20031;-89
2022/03/08 12:03:10;;;;;;;4.85;3.15;;;;;;;17.91;46.76;99119.22;4958162;28;20437;-89
2022/03/08 12:05:40;;;;;;;4.20;3.10;;;;;;;17.94;46.56;99115.56;4960227;28;20026;-88
2022/03/08 12:08:21;;;;;;;4.60;3.15;;;;;;;17.92;46.68;99115.66;4977397;28;20027;-89
2022/03/08 12:10:48;;;;;;;6.47;3.55;;;;;;;17.96;46.73;99117.19;4977305;28;20033;-89
2022/03/08 12:13:15;;;;;;;4.78;3.30;;;;;;;17.97;46.55;99123.34;4959726;28;20037;-89
2022/03/08 12:16:07;;;;;;;5.85;3.25;;;;;;;17.98;46.73;99110.03;4962785;28;20042;-89
2022/03/08 12:18:36;;;;;;;5.25;3.35;;;;;;;18.00;46.65;99117.06;4957479;28;20051;-89
2022/03/08 12:21:20;;;;;;;4.85;3.33;;;;;;;18.02;46.72;99123.09;4977940;28;20061;-89
2022/03/08 12:23:53;;;;;;;5.60;3.38;;;;;;;18.04;46.87;99129.13;4976552;28;20022;-88
2022/03/08 12:26:27;;;;;;;4.60;2.85;;;;;;;18.04;46.77;99124.72;4960630;28;20074;-89
2022/03/08 12:29:09;;;;;;;5.50;3.38;;;;;;;18.06;46.68;99129.94;4960648;28;20034;-88